Flight Track Log - Related Links

Times and Time Zones

All times are in EST time to prevent confusion due to time zone crossing. See the SKW6195 flight status page for this flight to view local times or setup timezone preferences in your user account.

Time Position Orientation Groundspeed Altitude Reporting Facility
EST Latitude Longitude Course Direction KTS MPH feet Rate Location/Type
Fri 05:45:41 PM 49.1500 -123.3167 139° Southeast 210 242 3,400  Level Vancouver Center
Fri 05:46:41 PM 49.1000 -123.2667 147° Southeast 250 288 5,700 2,300 Climbing Vancouver Center
Fri 05:47:00 PM 48.9494 -122.5032 139° Southeast  Level Estimated
Fri 05:47:41 PM 49.0667 -123.1667 117° Southeast 280 322 8,000  Level Vancouver Center
Fri 05:48:00 PM 48.8517 -122.3791 140° Southeast  Level FlightAware Approximate
Fri 05:48:41 PM 49.0333 -123.0333 111° Southeast 300 345 10,500  Level Vancouver Center
Fri 05:49:00 PM 48.7452 -122.2754 132° Southeast  Level FlightAware Approximate
Fri 05:49:41 PM 49.0000 -122.9333 117° Southeast 330 380 12,600  Level Vancouver Center
Fri 05:50:00 PM 48.6600 -122.1465 139° Southeast  Level FlightAware Approximate
Fri 05:50:41 PM 48.9667 -122.7833 109° East 330 380 14,800  Level Vancouver Center
Fri 05:51:41 PM 48.9333 -122.6500 111° Southeast 340 391 17,100 1,700 Climbing Vancouver Center
Fri 05:52:41 PM 48.8833 -122.5000 117° Southeast 360 414 18,200 1,500 Climbing Vancouver Center
Fri 05:53:41 PM 48.8500 -122.3833 113° Southeast 370 426 20,100 1,750 Climbing Vancouver Center
Fri 05:54:41 PM 48.8000 -122.2333 117° Southeast 380 437 21,700 1,550 Climbing Vancouver Center
Fri 05:55:41 PM 48.7500 -122.0833 117° Southeast 400 460 23,200 1,550 Climbing Vancouver Center
Fri 05:56:41 PM 48.7000 -121.9333 117° Southeast 400 460 24,800 1,500 Climbing Vancouver Center
Fri 05:57:41 PM 48.6500 -121.7500 112° Southeast 410 472 26,200 1,200 Climbing Vancouver Center
Fri 05:58:41 PM 48.6000 -121.6000 117° Southeast 420 483 27,200 857 Climbing Vancouver Center
Fri 05:59:12 PM 48.5897 -121.5531 108° East 426 490 27,500 903 Climbing Seattle Center
Fri 06:00:14 PM 48.5328 -121.3881 117° Southeast 440 506 28,600 1,122 Climbing Seattle Center
Fri 06:01:15 PM 48.4614 -121.1875 118° Southeast 450 518 29,800 1,082 Climbing Seattle Center
Fri 06:02:16 PM 48.4011 -121.0181 118° Southeast 456 525 30,800 984 Climbing Seattle Center
Fri 06:03:17 PM 48.3411 -120.8481 118° Southeast 460 529 31,800 836 Climbing Seattle Center
Fri 06:04:18 PM 48.2878 -120.7039 119° Southeast 467 537 32,500 738 Climbing Seattle Center
Fri 06:05:19 PM 48.2133 -120.4983 118° Southeast 469 540 33,300 738 Climbing Seattle Center
Fri 06:06:20 PM 48.1503 -120.3231 118° Southeast 476 548 34,000 689 Climbing Seattle Center
Fri 06:07:21 PM 48.0864 -120.1478 119° Southeast 479 551 34,700 689 Climbing Seattle Center
Fri 06:08:22 PM 48.0214 -119.9725 119° Southeast 483 556 35,400 738 Climbing Seattle Center
Fri 06:09:23 PM 47.9556 -119.7981 119° Southeast 484 557 36,200 689 Climbing Seattle Center
Fri 06:10:24 PM 47.8911 -119.6242 119° Southeast 481 554 36,800 689 Climbing Seattle Center
Fri 06:11:25 PM 47.8275 -119.4522 119° Southeast 477 549 37,600 738 Climbing Seattle Center
Fri 06:12:26 PM 47.7619 -119.2831 120° Southeast 473 544 38,300 689 Climbing Seattle Center
Fri 06:13:27 PM 47.6989 -119.1167 119° Southeast 466 536 39,000 344 Climbing Seattle Center
Fri 06:14:28 PM 47.6358 -118.9506 119° Southeast 464 534 39,000  Level Seattle Center
Fri 06:15:30 PM 47.5594 -118.7531 120° Southeast 464 534 39,000  Level Seattle Center
Fri 06:16:31 PM 47.4961 -118.5878 120° Southeast 464 534 39,000  Level Seattle Center
Fri 06:17:32 PM 47.4306 -118.4233 120° Southeast 467 537 39,000  Level Seattle Center
Fri 06:18:33 PM 47.3658 -118.2581 120° Southeast 467 537 39,000  Level Seattle Center
Fri 06:19:34 PM 47.2997 -118.0925 120° Southeast 471 542 39,000  Level Seattle Center
Fri 06:20:35 PM 47.2342 -117.9258 120° Southeast 472 543 39,000  Level Seattle Center
Fri 06:21:36 PM 47.1675 -117.7603 121° Southeast 474 545 39,000  Level Seattle Center
Fri 06:22:37 PM 47.1008 -117.5917 120° Southeast 480 552 39,000  Level Seattle Center
Fri 06:23:38 PM 47.0331 -117.4261 121° Southeast 479 551 39,000  Level Seattle Center
Fri 06:24:39 PM 46.9517 -117.2278 121° Southeast 479 551 39,000  Level Seattle Center
Fri 06:25:41 PM 46.8828 -117.0592 121° Southeast 485 558 39,000  Level Seattle Center
Fri 06:26:42 PM 46.8147 -116.8922 121° Southeast 483 556 39,000  Level Seattle Center
Fri 06:27:43 PM 46.7450 -116.7261 121° Southeast 483 556 39,000  Level Seattle Center
Fri 06:28:44 PM 46.6753 -116.5606 121° Southeast 482 555 39,000  Level Seattle Center
Fri 06:29:45 PM 46.6061 -116.3958 121° Southeast 481 554 39,000  Level Seattle Center
Fri 06:30:46 PM 46.5375 -116.2325 121° Southeast 477 549 39,000  Level Seattle Center
Fri 06:31:47 PM 46.4667 -116.0678 122° Southeast 481 554 39,000 -49 Level Seattle Center
Fri 06:32:48 PM 46.3969 -115.9058 122° Southeast 478 550 38,900 -738 Descending Seattle Center
Fri 06:33:49 PM 46.3111 -115.7042 122° Southeast 490 564 37,500 -984 Descending Seattle Center
Fri 06:34:50 PM 46.2364 -115.5339 122° Southeast 500 575 36,900 -244 Descending Seattle Center
Fri 06:35:52 PM 46.1636 -115.3658 122° Southeast 497 572 37,000 49 Climbing Seattle Center
Fri 06:36:53 PM 46.0931 -115.2053 122° Southeast 482 555 37,000  Level Seattle Center
Fri 06:37:54 PM 46.0225 -115.0436 122° Southeast 479 551 37,000  Level Seattle Center
Fri 06:38:55 PM 45.9506 -114.8850 123° Southeast 476 548 37,000  Level Seattle Center
Fri 06:39:56 PM 45.8803 -114.7261 122° Southeast 474 545 37,000  Level Seattle Center
Fri 06:40:57 PM 45.8092 -114.5689 123° Southeast 473 544 37,000  Level Seattle Center
Fri 06:41:58 PM 45.7381 -114.4125 123° Southeast 471 542 37,000 -49 Level Seattle Center
Fri 06:42:59 PM 45.6661 -114.2581 124° Southeast 469 540 36,900  Descending Seattle Center
Fri 06:44:01 PM 45.5958 -114.1022 123° Southeast 469 540 37,000 49 Climbing Seattle Center
Fri 06:45:02 PM 45.5225 -113.9400 123° Southeast 467 537 37,000  Level Seattle Center
Fri 06:46:03 PM 45.4525 -113.7878 123° Southeast 464 534 37,000  Level Seattle Center
Fri 06:47:29 PM 45.3336 -113.5394 124° Southeast 461 531 37,000  Level Salt Lake Center
Fri 06:48:30 PM 45.2658 -113.3967 124° Southeast 456 525 37,000  Level Salt Lake Center
Fri 06:49:32 PM 45.2006 -113.2536 123° Southeast 454 522 37,000  Level Salt Lake Center
Fri 06:50:34 PM 45.1211 -113.0883 124° Southeast 455 524 37,000  Level Salt Lake Center
Fri 06:51:35 PM 45.0544 -112.9469 124° Southeast 452 520 37,000  Level Salt Lake Center
Fri 06:52:37 PM 44.9756 -112.7819 124° Southeast 454 522 37,000  Level Salt Lake Center
Fri 06:53:38 PM 44.9083 -112.6406 124° Southeast 454 522 37,000  Level Salt Lake Center
Fri 06:54:40 PM 44.8294 -112.4769 124° Southeast 454 522 37,000  Level Salt Lake Center
Fri 06:55:41 PM 44.7608 -112.3353 124° Southeast 457 526 37,000  Level Salt Lake Center
Fri 06:56:43 PM 44.6933 -112.1978 125° Southeast 451 519 37,000  Level Salt Lake Center
Fri 06:57:45 PM 44.6136 -112.0353 125° Southeast 454 522 37,000  Level Salt Lake Center
Fri 06:58:46 PM 44.5444 -111.8956 125° Southeast 457 526 37,000  Level Salt Lake Center
Fri 06:59:48 PM 44.4650 -111.7342 125° Southeast 456 525 37,000  Level Salt Lake Center
Fri 07:00:49 PM 44.3972 -111.5983 125° Southeast 452 520 37,000  Level Salt Lake Center
Fri 07:01:51 PM 44.3164 -111.4381 125° Southeast 458 527 37,000  Level Salt Lake Center
Fri 07:02:53 PM 44.2472 -111.2997 125° Southeast 458 527 37,000  Level Salt Lake Center
Fri 07:03:54 PM 44.1644 -111.1392 126° Southeast 460 529 37,000  Level Salt Lake Center
Fri 07:04:56 PM 44.0928 -110.9978 125° Southeast 466 536 37,000  Level Salt Lake Center
Fri 07:05:57 PM 44.0086 -110.8328 125° Southeast 470 541 37,000  Level Salt Lake Center
Fri 07:06:59 PM 43.9353 -110.6900 125° Southeast 474 545 37,000  Level Salt Lake Center
Fri 07:08:00 PM 43.8608 -110.5472 126° Southeast 477 549 37,000  Level Salt Lake Center
Fri 07:09:02 PM 43.7744 -110.3814 126° Southeast 476 548 37,000  Level Salt Lake Center
Fri 07:10:03 PM 43.7003 -110.2392 126° Southeast 476 548 37,000  Level Salt Lake Center
Fri 07:11:05 PM 43.6122 -110.0733 126° Southeast 480 552 37,000  Level Salt Lake Center
Fri 07:12:07 PM 43.5392 -109.9300 125° Southeast 479 551 37,000  Level Salt Lake Center
Fri 07:13:08 PM 43.4661 -109.7964 127° Southeast 473 544 37,000  Level Salt Lake Center
Fri 07:14:10 PM 43.3722 -109.6203 126° Southeast 476 548 37,000  Level Salt Lake Center
Fri 07:15:12 PM 43.2947 -109.4764 126° Southeast 472 543 37,000  Level Salt Lake Center
Fri 07:16:13 PM 43.2164 -109.3336 127° Southeast 471 542 37,000  Level Salt Lake Center
Fri 07:17:15 PM 43.1386 -109.1894 126° Southeast 473 544 37,000  Level Salt Lake Center
Fri 07:18:17 PM 43.0600 -109.0439 126° Southeast 475 547 37,000  Level Salt Lake Center
Fri 07:19:18 PM 42.9822 -108.9011 127° Southeast 471 542 37,000  Level Salt Lake Center
Fri 07:20:20 PM 42.8914 -108.7378 127° Southeast 464 534 37,000  Level Salt Lake Center
Fri 07:21:22 PM 42.8153 -108.6000 127° Southeast 471 542 37,000  Level Salt Lake Center
Fri 07:22:23 PM 42.7269 -108.4400 127° Southeast 472 543 37,000  Level Salt Lake Center
Fri 07:23:25 PM 42.6497 -108.3033 128° Southeast 474 545 37,000  Level Salt Lake Center
Fri 07:24:27 PM 42.5742 -108.1672 127° Southeast 472 543 37,000  Level Salt Lake Center
Fri 07:25:29 PM 42.4853 -108.0075 127° Southeast 473 544 37,000  Level Salt Lake Center
Fri 07:26:30 PM 42.4086 -107.8739 128° Southeast 470 541 37,000  Level Salt Lake Center
Fri 07:27:32 PM 42.3192 -107.7167 128° Southeast 472 543 37,000  Level Salt Lake Center
Fri 07:28:34 PM 42.2383 -107.5911 131° Southeast 465 535 37,000  Level Salt Lake Center
Fri 07:29:35 PM 42.1497 -107.4736 135° Southeast 463 533 37,000  Level Salt Lake Center
Fri 07:30:44 PM 42.0331 -107.3133 134° Southeast 466 536 37,000  Level Denver Center
Fri 07:31:46 PM 41.9453 -107.1956 135° Southeast 465 535 37,000  Level Denver Center
Fri 07:32:47 PM 41.8592 -107.0789 135° Southeast 462 532 37,000  Level Denver Center
Fri 07:33:49 PM 41.7583 -106.9433 135° Southeast 459 528 37,000  Level Denver Center
Fri 07:34:51 PM 41.6733 -106.8300 135° Southeast 453 521 37,000  Level Denver Center
Fri 07:35:53 PM 41.5739 -106.6994 135° Southeast 449 517 37,000  Level Denver Center
Fri 07:36:55 PM 41.4908 -106.5889 135° Southeast 442 509 37,000  Level Denver Center
Fri 07:37:57 PM 41.3944 -106.4622 135° Southeast 442 509 37,000  Level Denver Center
Fri 07:38:58 PM 41.3250 -106.3714 135° Southeast 440 506 37,000 -293 Level Denver Center
Fri 07:40:00 PM 41.2239 -106.2403 136° Southeast 446 513 36,400 -1,500 Descending Denver Center
Fri 07:41:02 PM 41.1264 -106.1136 136° Southeast 449 517 33,900 -2,226 Descending Denver Center
Fri 07:42:04 PM 41.0408 -106.0050 136° Southeast 446 513 31,800 -1,985 Descending Denver Center
Fri 07:43:18 PM 40.9439 -105.8789 135° Southeast 446 513 29,400 -2,162 Descending Denver Center
Fri 07:44:20 PM 40.8403 -105.7458 136° Southeast 435 501 26,900 -2,177 Descending Denver Center
Fri 07:45:22 PM 40.7572 -105.6386 136° Southeast 424 488 24,900 -1,935 Descending Denver Center
Fri 07:46:24 PM 40.6767 -105.5358 136° Southeast 406 467 22,900 -1,809 Descending Denver Center
Fri 07:47:38 PM 40.5858 -105.4108 134° Southeast 395 455 20,800 -1,544 Descending Denver Center
Fri 07:48:40 PM 40.5164 -105.2769 124° Southeast 370 426 19,400 -1,500 Descending Denver Center
Fri 07:49:42 PM 40.4725 -105.1611 116° Southeast 355 409 17,700 -1,368 Descending Denver Center
Fri 07:50:56 PM 40.4400 -105.0483 111° Southeast 332 382 16,300 -1,135 Descending Denver Center
Fri 07:52:10 PM 40.4025 -104.9167 110° East 296 341 14,900 -1,314 Descending Denver Center
Fri 07:53:13 PM 40.3528 -104.8272 126° Southeast 245 282 13,300 -1,258 Descending Denver Center
Fri 07:54:14 PM 40.3106 -104.7583 129° Southeast 244 281 12,300 -976 Descending Denver Center
Fri 07:55:16 PM 40.2486 -104.7272 159° South 238 274 11,300 -1,016 Descending Denver Center
Fri 07:56:18 PM 40.1831 -104.6975 161° South 233 268 10,200 -1,016 Descending Denver Center
Fri 07:57:20 PM 40.1181 -104.6844 171° South 238 274 9,200 -968 Descending Denver Center
Fri 07:58:22 PM 40.0447 -104.6844 180° South 244 281 8,200 -919 Descending Denver Center
Fri 07:59:24 PM 39.9886 -104.6850 180° South 202 232 7,300 -968 Descending Denver Center
Fri 08:00:26 PM 39.9367 -104.6861 181° South 165 190 6,200 -919 Descending Denver Center
Fri 08:01:28 PM 39.8956 -104.6869 181° South 148 170 5,400 -774 Descending Denver Center
Fri 08:03:00 PM 39.8617 -104.6732 180° South  Level Estimated
Fri 08:10:00 PM 39.8617 -104.6732 180° South  Level Estimated
Fri 08:11:00 PM 39.8617 -104.6732 180° South  Level Estimated
Fri 08:12:00 PM 39.8617 -104.6732 180° South  Level Estimated

Login

Don't have an account? Register now (free) for customized features, flight alerts, and more!